Terminal Aerodrome Forecast
Issued by NWS Louisville, KY

Home | Current Version | Previous Version | Text Only | Print | Product List | Glossary On
Versions: 1 2 3 4 5 6 7 8 9 10 11 12 13
000
FTUS43 KLMK 230520
TAFLEX
TAF
KLEX 230520Z 2306/2406 19011KT P6SM SCT013 BKN022
     FM231500 21015KT P6SM VCSH SCT020 OVC035
     FM232000 22008KT 4SM SHRA VCTS BKN025CB OVC035
     FM240400 26005KT P6SM SHRA BKN020 OVC030=

USA.gov is the U.S. government's official web portal to all federal, state and local government web resources and services.